createdAt,value
2022-12-15T00:04:37.351Z,99218.40
2022-12-15T00:09:59.752Z,99219.80
2022-12-15T00:15:23.055Z,99221.20
2022-12-15T00:20:45.348Z,99222.20
2022-12-15T00:26:08.022Z,99213.20
2022-12-15T00:31:31.238Z,99209.20
2022-12-15T00:36:54.108Z,99204.60
2022-12-15T00:41:57.689Z,99205.00
2022-12-15T00:47:02.104Z,99193.80
2022-12-15T00:52:24.791Z,99196.80
2022-12-15T00:57:48.072Z,99196.60
2022-12-15T01:03:10.501Z,99197.00
2022-12-15T01:08:33.272Z,99195.20
2022-12-15T01:13:55.567Z,99195.00
2022-12-15T01:19:17.936Z,99193.00
2022-12-15T01:24:21.640Z,99192.20
2022-12-15T01:29:26.302Z,99188.60
2022-12-15T01:34:30.132Z,99186.20
2022-12-15T01:39:52.265Z,99188.00
2022-12-15T01:45:48.570Z,99184.00
2022-12-15T01:51:38.429Z,99183.40
2022-12-15T01:56:49.024Z,99179.20
2022-12-15T02:01:53.002Z,99182.00
2022-12-15T02:06:57.287Z,99180.80
2022-12-15T02:12:40.845Z,99179.80
2022-12-15T02:18:30.019Z,99187.20
2022-12-15T02:23:51.570Z,99183.20
2022-12-15T02:29:07.024Z,99178.40
2022-12-15T02:34:40.897Z,99176.80
2022-12-15T02:39:45.544Z,99177.00
2022-12-15T02:44:59.790Z,99174.20
2022-12-15T02:50:41.611Z,99176.40
2022-12-15T02:55:57.932Z,99177.80
2022-12-15T03:01:19.166Z,99180.60
2022-12-15T03:06:26.932Z,99176.60
2022-12-15T03:11:31.161Z,99181.80
2022-12-15T03:16:34.922Z,99178.00
2022-12-15T03:21:39.069Z,99178.00
2022-12-15T03:26:44.227Z,99174.40
2022-12-15T03:31:49.701Z,99169.60
2022-12-15T03:36:54.135Z,99170.00
2022-12-15T03:41:58.060Z,99169.80
2022-12-15T03:47:03.767Z,99166.80
2022-12-15T03:52:07.764Z,99173.40
2022-12-15T03:57:11.694Z,99175.20
2022-12-15T04:02:15.656Z,99183.00
2022-12-15T04:07:19.859Z,99187.20
2022-12-15T04:12:23.977Z,99189.80
2022-12-15T04:17:27.930Z,99192.40
2022-12-15T04:22:31.626Z,99188.60
2022-12-15T04:27:59.836Z,99199.80
2022-12-15T04:33:30.583Z,99200.80
2022-12-15T04:38:53.761Z,99202.60
2022-12-15T04:44:16.265Z,99203.00
2022-12-15T04:49:38.885Z,99200.20
2022-12-15T04:55:01.652Z,99200.00
2022-12-15T05:00:25.659Z,99205.40
2022-12-15T05:05:47.923Z,99210.60
2022-12-15T05:11:10.381Z,99216.60
2022-12-15T05:16:32.834Z,99209.00
2022-12-15T05:21:55.529Z,99209.20
2022-12-15T05:27:18.521Z,99204.40
2022-12-15T05:32:22.509Z,99200.80
2022-12-15T05:37:26.225Z,99206.60
2022-12-15T05:42:29.920Z,99211.20
2022-12-15T05:47:34.825Z,99225.60
2022-12-15T05:52:38.430Z,99227.20
2022-12-15T05:57:42.289Z,99236.00
2022-12-15T06:02:46.106Z,99244.00
2022-12-15T06:07:49.997Z,99256.00
2022-12-15T06:12:54.603Z,99265.20
2022-12-15T06:17:58.671Z,99274.60
2022-12-15T06:26:49.816Z,99302.20
2022-12-15T06:31:54.132Z,99303.80
2022-12-15T06:36:58.245Z,99299.40
2022-12-15T06:42:01.916Z,99306.40
2022-12-15T06:47:05.896Z,99307.00
2022-12-15T06:52:09.877Z,99315.20
2022-12-15T06:57:13.599Z,99319.00
2022-12-15T07:02:25.139Z,99325.00
2022-12-15T07:07:32.948Z,99329.00
2022-12-15T07:12:37.453Z,99334.20
2022-12-15T07:17:41.600Z,99337.40
2022-12-15T07:22:50.966Z,99350.20
2022-12-15T07:27:54.621Z,99364.40
2022-12-15T07:32:59.432Z,99375.00
2022-12-15T07:38:07.993Z,99385.60
2022-12-15T07:43:11.662Z,99388.20
2022-12-15T07:48:15.291Z,99397.40
2022-12-15T07:53:18.923Z,99408.00
2022-12-15T07:58:22.633Z,99410.60
2022-12-15T08:03:26.619Z,99415.60
2022-12-15T08:08:31.532Z,99426.60
2022-12-15T08:19:03.347Z,99425.80
2022-12-15T08:24:08.817Z,99433.80
2022-12-15T08:34:39.282Z,99458.60
2022-12-15T08:39:43.220Z,99461.40
2022-12-15T08:44:50.765Z,99466.60
2022-12-15T08:49:56.083Z,99474.60
2022-12-15T08:55:00.105Z,99479.80
2022-12-15T09:00:05.932Z,99476.80
2022-12-15T09:05:10.240Z,99475.20
2022-12-15T09:10:14.366Z,99488.40
2022-12-15T09:15:23.273Z,99491.40
2022-12-15T09:20:38.485Z,99490.20
2022-12-15T09:25:43.251Z,99485.40
2022-12-15T09:30:47.311Z,99494.40
2022-12-15T09:35:52.495Z,99491.20
2022-12-15T09:40:56.648Z,99500.40
2022-12-15T09:46:27.102Z,99502.60
2022-12-15T09:51:44.467Z,99505.40
2022-12-15T09:56:57.330Z,99503.60
2022-12-15T10:02:21.994Z,99508.20
2022-12-15T10:07:35.242Z,99509.00
2022-12-15T10:12:50.268Z,99511.80
2022-12-15T10:18:22.617Z,99512.40
2022-12-15T10:23:27.405Z,99514.80
2022-12-15T10:28:59.374Z,99524.40
2022-12-15T10:34:17.660Z,99522.80
2022-12-15T10:39:24.117Z,99526.40
2022-12-15T10:44:39.819Z,99534.20
2022-12-15T10:49:43.838Z,99533.60
2022-12-15T10:54:52.777Z,99546.00
2022-12-15T11:00:16.162Z,99542.40
2022-12-15T11:05:20.702Z,99546.60
2022-12-15T11:11:01.266Z,99544.60
2022-12-15T11:16:20.151Z,99550.00
2022-12-15T11:21:39.164Z,99558.60
2022-12-15T11:26:49.211Z,99569.60
2022-12-15T11:31:58.852Z,99560.20
2022-12-15T11:37:19.922Z,99560.00
2022-12-15T11:42:35.026Z,99560.40
2022-12-15T11:47:48.656Z,99567.40
2022-12-15T11:53:31.928Z,99577.80
2022-12-15T11:59:00.715Z,99584.40
2022-12-15T12:04:47.241Z,99583.40
2022-12-15T12:10:09.808Z,99591.80
2022-12-15T12:15:27.053Z,99601.20
2022-12-15T12:20:52.461Z,99609.80
2022-12-15T12:26:24.679Z,99622.80
2022-12-15T12:31:50.758Z,99624.00
2022-12-15T12:37:05.091Z,99628.80
2022-12-15T12:42:52.428Z,99643.20
2022-12-15T12:48:09.792Z,99647.40
2022-12-15T12:53:34.895Z,99647.20
2022-12-15T12:58:48.468Z,99655.40
2022-12-15T13:04:31.083Z,99659.80
2022-12-15T13:09:44.063Z,99662.00
2022-12-15T13:14:55.196Z,99662.80
2022-12-15T13:20:01.714Z,99665.80
2022-12-15T13:25:41.925Z,99680.00
2022-12-15T13:31:29.684Z,99683.60
2022-12-15T13:36:42.410Z,99693.80
2022-12-15T13:47:19.317Z,99716.80
2022-12-15T13:58:21.384Z,99719.20
2022-12-15T14:03:26.238Z,99714.60
2022-12-15T14:08:31.630Z,99722.20
2022-12-15T14:13:37.491Z,99734.80
2022-12-15T14:18:44.349Z,99735.20
2022-12-15T14:24:19.709Z,99744.80
2022-12-15T14:29:14.604Z,99741.60
2022-12-15T14:34:30.819Z,99752.60
2022-12-15T14:39:46.830Z,99763.40
2022-12-15T14:44:58.397Z,99765.00
2022-12-15T14:50:13.829Z,99765.20
2022-12-15T14:55:38.671Z,99769.60
2022-12-15T15:00:54.574Z,99774.80
2022-12-15T15:06:18.761Z,99776.80
2022-12-15T15:11:41.272Z,99772.80
2022-12-15T15:17:01.406Z,99781.40
2022-12-15T15:22:06.375Z,99790.20
2022-12-15T15:32:58.393Z,99798.60
2022-12-15T15:38:30.546Z,99802.60
2022-12-15T15:43:34.624Z,99809.80
2022-12-15T15:48:47.766Z,99814.60
2022-12-15T15:53:54.345Z,99821.40
2022-12-15T15:59:16.990Z,99824.20
2022-12-15T16:04:21.223Z,99833.60
2022-12-15T16:09:27.184Z,99827.40
2022-12-15T16:14:32.625Z,99829.40
2022-12-15T16:19:39.860Z,99821.80
2022-12-15T16:24:44.923Z,99821.40
2022-12-15T16:29:49.067Z,99818.60
2022-12-15T16:34:54.209Z,99816.80
2022-12-15T16:39:58.157Z,99804.80
2022-12-15T16:45:13.344Z,99807.80
2022-12-15T16:50:21.976Z,99822.60
2022-12-15T16:55:38.137Z,99826.60
2022-12-15T17:00:45.497Z,99828.20
2022-12-15T17:05:54.575Z,99830.60
2022-12-15T17:10:58.378Z,99839.20
2022-12-15T17:16:03.580Z,99848.20
2022-12-15T17:21:22.231Z,99845.60
2022-12-15T17:26:30.961Z,99860.60
2022-12-15T17:31:36.162Z,99871.20
2022-12-15T17:36:41.771Z,99875.60
2022-12-15T17:42:02.347Z,99887.00
2022-12-15T17:47:10.037Z,99884.40
2022-12-15T17:52:30.137Z,99882.80
2022-12-15T17:57:34.766Z,99882.80
2022-12-15T18:02:40.061Z,99879.00
2022-12-15T18:07:47.825Z,99878.40
2022-12-15T18:12:52.891Z,99877.60
2022-12-15T18:17:57.823Z,99882.80
2022-12-15T18:23:02.116Z,99897.00
2022-12-15T18:28:35.280Z,99901.80
2022-12-15T18:33:39.325Z,99917.00
2022-12-15T18:38:45.600Z,99922.40
2022-12-15T18:44:01.610Z,99933.40
2022-12-15T18:49:11.754Z,99945.20
2022-12-15T18:54:25.718Z,99943.20
2022-12-15T18:59:29.777Z,99946.60
2022-12-15T19:04:33.789Z,99942.60
2022-12-15T19:09:42.946Z,99942.60
2022-12-15T19:14:50.548Z,99959.20
2022-12-15T19:20:13.088Z,99965.40
2022-12-15T19:25:31.758Z,99961.40
2022-12-15T19:30:51.556Z,99977.00
2022-12-15T19:36:26.730Z,99965.40
2022-12-15T19:41:36.526Z,99971.40
2022-12-15T19:46:43.108Z,99972.80
2022-12-15T19:51:47.347Z,99974.00
2022-12-15T19:56:52.203Z,99974.80
2022-12-15T20:01:56.497Z,99985.60
2022-12-15T20:07:04.968Z,99984.00
2022-12-15T20:12:19.050Z,99969.40
2022-12-15T20:17:23.056Z,99970.80
2022-12-15T20:22:38.596Z,99974.60
2022-12-15T20:27:57.126Z,99968.40
2022-12-15T20:33:17.957Z,99977.40
2022-12-15T20:38:46.917Z,99985.80
2022-12-15T20:44:09.291Z,99984.60
2022-12-15T20:49:37.317Z,99991.80
2022-12-15T20:54:53.262Z,100000.20
2022-12-15T21:00:00.642Z,100014.40
2022-12-15T21:05:10.103Z,100005.00
2022-12-15T21:10:21.229Z,100007.60
2022-12-15T21:15:28.102Z,100021.80
2022-12-15T21:20:32.989Z,100021.60
2022-12-15T21:25:36.700Z,100026.80
2022-12-15T21:30:41.324Z,100042.60
2022-12-15T21:35:48.329Z,100040.20
2022-12-15T21:40:57.722Z,100041.40
2022-12-15T21:46:20.522Z,100047.40
2022-12-15T21:51:35.088Z,100053.80
2022-12-15T21:56:40.218Z,100055.40
2022-12-15T22:01:45.667Z,100066.60
2022-12-15T22:06:53.766Z,100059.60
2022-12-15T22:12:04.752Z,100058.60
2022-12-15T22:17:22.905Z,100065.80
2022-12-15T22:22:32.390Z,100068.20
2022-12-15T22:27:42.881Z,100067.40
2022-12-15T22:32:55.713Z,100070.80
2022-12-15T22:38:03.582Z,100072.00
2022-12-15T22:43:27.519Z,100076.00
2022-12-15T22:48:37.423Z,100084.80
2022-12-15T22:53:41.594Z,100073.80
2022-12-15T22:58:47.744Z,100057.00
2022-12-15T23:03:53.239Z,100060.40
2022-12-15T23:08:59.322Z,100057.60
2022-12-15T23:14:11.373Z,100055.20
2022-12-15T23:19:24.223Z,100057.20
2022-12-15T23:24:28.412Z,100062.60
2022-12-15T23:29:32.227Z,100065.60
2022-12-15T23:34:35.973Z,100069.00
2022-12-15T23:39:39.883Z,100074.00
2022-12-15T23:44:43.675Z,100067.60
2022-12-15T23:49:47.945Z,100060.80
2022-12-15T23:54:52.489Z,100062.60
2022-12-15T23:59:56.407Z,100067.80
